sensor_id;sensor_type;location;lat;lon;timestamp;temperature;humidity
9808;DHT22;4943;52.550;13.462;2024-02-26T00:01:45;6.80;99.90
9808;DHT22;4943;52.550;13.462;2024-02-26T00:04:13;6.70;99.90
9808;DHT22;4943;52.550;13.462;2024-02-26T00:06:41;6.70;99.90
9808;DHT22;4943;52.550;13.462;2024-02-26T00:09:09;6.60;99.90
9808;DHT22;4943;52.550;13.462;2024-02-26T00:11:38;6.60;99.90
9808;DHT22;4943;52.550;13.462;2024-02-26T00:14:07;6.50;99.90
9808;DHT22;4943;52.550;13.462;2024-02-26T00:16:36;6.50;99.90
9808;DHT22;4943;52.550;13.462;2024-02-26T00:19:04;6.50;99.90
9808;DHT22;4943;52.550;13.462;2024-02-26T00:21:32;6.50;99.90
9808;DHT22;4943;52.550;13.462;2024-02-26T00:24:00;6.40;99.90
9808;DHT22;4943;52.550;13.462;2024-02-26T00:26:28;6.40;99.90
9808;DHT22;4943;52.550;13.462;2024-02-26T00:28:56;6.40;99.90
9808;DHT22;4943;52.550;13.462;2024-02-26T00:31:25;6.30;99.90
9808;DHT22;4943;52.550;13.462;2024-02-26T00:33:53;6.30;99.90
9808;DHT22;4943;52.550;13.462;2024-02-26T00:36:22;6.30;99.90
9808;DHT22;4943;52.550;13.462;2024-02-26T00:38:50;6.30;99.90
9808;DHT22;4943;52.550;13.462;2024-02-26T00:41:18;6.30;99.90
9808;DHT22;4943;52.550;13.462;2024-02-26T00:43:47;6.30;99.90
9808;DHT22;4943;52.550;13.462;2024-02-26T00:46:15;6.30;99.90
9808;DHT22;4943;52.550;13.462;2024-02-26T00:48:45;6.30;99.90
9808;DHT22;4943;52.550;13.462;2024-02-26T00:51:13;6.30;99.90
9808;DHT22;4943;52.550;13.462;2024-02-26T00:53:42;6.30;99.90
9808;DHT22;4943;52.550;13.462;2024-02-26T00:56:10;6.30;99.90
9808;DHT22;4943;52.550;13.462;2024-02-26T00:58:38;6.30;99.90
9808;DHT22;4943;52.550;13.462;2024-02-26T01:01:06;6.20;99.90
9808;DHT22;4943;52.550;13.462;2024-02-26T01:03:34;6.20;99.90
9808;DHT22;4943;52.550;13.462;2024-02-26T01:06:04;6.20;99.90
9808;DHT22;4943;52.550;13.462;2024-02-26T01:08:33;6.20;99.90
9808;DHT22;4943;52.550;13.462;2024-02-26T01:11:02;6.20;99.90
9808;DHT22;4943;52.550;13.462;2024-02-26T01:13:30;6.20;99.90
9808;DHT22;4943;52.550;13.462;2024-02-26T01:15:59;6.20;99.90
9808;DHT22;4943;52.550;13.462;2024-02-26T01:18:27;6.10;99.90
9808;DHT22;4943;52.550;13.462;2024-02-26T01:20:55;6.10;99.90
9808;DHT22;4943;52.550;13.462;2024-02-26T01:23:25;6.10;99.90
9808;DHT22;4943;52.550;13.462;2024-02-26T01:25:53;6.10;99.90
9808;DHT22;4943;52.550;13.462;2024-02-26T01:28:21;6.10;99.90
9808;DHT22;4943;52.550;13.462;2024-02-26T01:30:49;6.10;99.90
9808;DHT22;4943;52.550;13.462;2024-02-26T01:33:17;6.10;99.90
9808;DHT22;4943;52.550;13.462;2024-02-26T01:35:45;6.00;99.90
9808;DHT22;4943;52.550;13.462;2024-02-26T01:38:13;6.00;99.90
9808;DHT22;4943;52.550;13.462;2024-02-26T01:40:43;6.00;99.90
9808;DHT22;4943;52.550;13.462;2024-02-26T01:43:11;6.00;99.90
9808;DHT22;4943;52.550;13.462;2024-02-26T01:45:39;6.00;99.90
9808;DHT22;4943;52.550;13.462;2024-02-26T01:48:07;6.00;99.90
9808;DHT22;4943;52.550;13.462;2024-02-26T01:50:37;6.00;99.90
9808;DHT22;4943;52.550;13.462;2024-02-26T01:53:06;5.90;99.90
9808;DHT22;4943;52.550;13.462;2024-02-26T01:55:35;5.90;99.90
9808;DHT22;4943;52.550;13.462;2024-02-26T01:58:05;5.90;99.90
9808;DHT22;4943;52.550;13.462;2024-02-26T02:00:33;5.90;99.90
9808;DHT22;4943;52.550;13.462;2024-02-26T02:03:02;5.90;99.90
9808;DHT22;4943;52.550;13.462;2024-02-26T02:05:31;5.90;99.90
9808;DHT22;4943;52.550;13.462;2024-02-26T02:08:00;5.80;99.90
9808;DHT22;4943;52.550;13.462;2024-02-26T02:10:30;5.90;99.90
9808;DHT22;4943;52.550;13.462;2024-02-26T02:12:58;5.80;99.90
9808;DHT22;4943;52.550;13.462;2024-02-26T02:15:28;5.80;99.90
9808;DHT22;4943;52.550;13.462;2024-02-26T02:17:56;5.80;99.90
9808;DHT22;4943;52.550;13.462;2024-02-26T02:20:26;5.80;99.90
9808;DHT22;4943;52.550;13.462;2024-02-26T02:23:00;5.80;99.90
9808;DHT22;4943;52.550;13.462;2024-02-26T02:25:28;5.80;99.90
9808;DHT22;4943;52.550;13.462;2024-02-26T02:27:56;5.70;99.90
9808;DHT22;4943;52.550;13.462;2024-02-26T02:30:27;5.70;99.90
9808;DHT22;4943;52.550;13.462;2024-02-26T02:32:57;5.70;99.90
9808;DHT22;4943;52.550;13.462;2024-02-26T02:35:27;5.70;99.90
9808;DHT22;4943;52.550;13.462;2024-02-26T02:37:56;5.60;99.90
9808;DHT22;4943;52.550;13.462;2024-02-26T02:40:25;5.60;99.90
9808;DHT22;4943;52.550;13.462;2024-02-26T02:42:53;5.60;99.90
9808;DHT22;4943;52.550;13.462;2024-02-26T02:45:21;5.60;99.90
9808;DHT22;4943;52.550;13.462;2024-02-26T02:47:49;5.60;99.90
9808;DHT22;4943;52.550;13.462;2024-02-26T02:50:17;5.60;99.90
9808;DHT22;4943;52.550;13.462;2024-02-26T02:52:47;5.60;99.90
9808;DHT22;4943;52.550;13.462;2024-02-26T02:55:17;5.60;99.90
9808;DHT22;4943;52.550;13.462;2024-02-26T02:57:45;5.60;99.90
9808;DHT22;4943;52.550;13.462;2024-02-26T03:00:14;5.60;99.90
9808;DHT22;4943;52.550;13.462;2024-02-26T03:02:42;5.60;99.90
9808;DHT22;4943;52.550;13.462;2024-02-26T03:05:12;5.60;99.90
9808;DHT22;4943;52.550;13.462;2024-02-26T03:07:40;5.60;99.90
9808;DHT22;4943;52.550;13.462;2024-02-26T03:10:09;5.60;99.90
9808;DHT22;4943;52.550;13.462;2024-02-26T03:12:38;5.60;99.90
9808;DHT22;4943;52.550;13.462;2024-02-26T03:15:07;5.60;99.90
9808;DHT22;4943;52.550;13.462;2024-02-26T03:17:35;5.60;99.90
9808;DHT22;4943;52.550;13.462;2024-02-26T03:20:05;5.60;99.90
9808;DHT22;4943;52.550;13.462;2024-02-26T03:22:35;5.60;99.90
9808;DHT22;4943;52.550;13.462;2024-02-26T03:25:04;5.60;99.90
9808;DHT22;4943;52.550;13.462;2024-02-26T03:27:33;5.60;99.90
9808;DHT22;4943;52.550;13.462;2024-02-26T03:30:02;5.60;99.90
9808;DHT22;4943;52.550;13.462;2024-02-26T03:32:30;5.60;99.90
9808;DHT22;4943;52.550;13.462;2024-02-26T03:34:58;5.60;99.90
9808;DHT22;4943;52.550;13.462;2024-02-26T03:37:27;5.60;99.90
9808;DHT22;4943;52.550;13.462;2024-02-26T03:39:55;5.50;99.90
9808;DHT22;4943;52.550;13.462;2024-02-26T03:42:23;5.50;99.90
9808;DHT22;4943;52.550;13.462;2024-02-26T03:44:53;5.50;99.90
9808;DHT22;4943;52.550;13.462;2024-02-26T03:47:21;5.50;99.90
9808;DHT22;4943;52.550;13.462;2024-02-26T03:49:49;5.50;99.90
9808;DHT22;4943;52.550;13.462;2024-02-26T03:52:17;5.50;99.90
9808;DHT22;4943;52.550;13.462;2024-02-26T03:54:45;5.50;99.90
9808;DHT22;4943;52.550;13.462;2024-02-26T03:57:13;5.50;99.90
9808;DHT22;4943;52.550;13.462;2024-02-26T03:59:41;5.50;99.90
9808;DHT22;4943;52.550;13.462;2024-02-26T04:02:11;5.50;99.90
9808;DHT22;4943;52.550;13.462;2024-02-26T04:04:39;5.50;99.90
9808;DHT22;4943;52.550;13.462;2024-02-26T04:07:07;5.50;99.90
9808;DHT22;4943;52.550;13.462;2024-02-26T04:09:35;5.50;99.90
9808;DHT22;4943;52.550;13.462;2024-02-26T04:12:04;5.50;99.90
9808;DHT22;4943;52.550;13.462;2024-02-26T04:14:32;5.50;99.90
9808;DHT22;4943;52.550;13.462;2024-02-26T04:17:00;5.50;99.90
9808;DHT22;4943;52.550;13.462;2024-02-26T04:19:30;5.50;99.90
9808;DHT22;4943;52.550;13.462;2024-02-26T04:21:59;5.40;99.90
9808;DHT22;4943;52.550;13.462;2024-02-26T04:24:27;5.40;99.90
9808;DHT22;4943;52.550;13.462;2024-02-26T04:26:55;5.40;99.90
9808;DHT22;4943;52.550;13.462;2024-02-26T04:29:24;5.40;99.90
9808;DHT22;4943;52.550;13.462;2024-02-26T04:31:52;5.40;99.90
9808;DHT22;4943;52.550;13.462;2024-02-26T04:34:20;5.40;99.90
9808;DHT22;4943;52.550;13.462;2024-02-26T04:36:49;5.40;99.90
9808;DHT22;4943;52.550;13.462;2024-02-26T04:39:17;5.40;99.90
9808;DHT22;4943;52.550;13.462;2024-02-26T04:41:45;5.40;99.90
9808;DHT22;4943;52.550;13.462;2024-02-26T04:44:14;5.40;99.90
9808;DHT22;4943;52.550;13.462;2024-02-26T04:46:42;5.40;99.90
9808;DHT22;4943;52.550;13.462;2024-02-26T04:49:10;5.40;99.90
9808;DHT22;4943;52.550;13.462;2024-02-26T04:51:38;5.40;99.90
9808;DHT22;4943;52.550;13.462;2024-02-26T04:54:08;5.40;99.90
9808;DHT22;4943;52.550;13.462;2024-02-26T04:56:36;5.40;99.90
9808;DHT22;4943;52.550;13.462;2024-02-26T04:59:04;5.40;99.90
9808;DHT22;4943;52.550;13.462;2024-02-26T05:01:32;5.40;99.90
9808;DHT22;4943;52.550;13.462;2024-02-26T05:04:00;5.40;99.90
9808;DHT22;4943;52.550;13.462;2024-02-26T05:06:28;5.40;99.90
9808;DHT22;4943;52.550;13.462;2024-02-26T05:08:57;5.40;99.90
9808;DHT22;4943;52.550;13.462;2024-02-26T05:11:26;5.40;99.90
9808;DHT22;4943;52.550;13.462;2024-02-26T05:13:54;5.40;99.90
9808;DHT22;4943;52.550;13.462;2024-02-26T05:16:22;5.30;99.90
9808;DHT22;4943;52.550;13.462;2024-02-26T05:18:51;5.30;99.90
9808;DHT22;4943;52.550;13.462;2024-02-26T05:21:20;5.30;99.90
9808;DHT22;4943;52.550;13.462;2024-02-26T05:23:48;5.30;99.90
9808;DHT22;4943;52.550;13.462;2024-02-26T05:26:19;5.30;99.90
9808;DHT22;4943;52.550;13.462;2024-02-26T05:28:49;5.30;99.90
9808;DHT22;4943;52.550;13.462;2024-02-26T05:31:18;5.40;99.90
9808;DHT22;4943;52.550;13.462;2024-02-26T05:33:46;5.30;99.90
9808;DHT22;4943;52.550;13.462;2024-02-26T05:36:18;5.40;99.90
9808;DHT22;4943;52.550;13.462;2024-02-26T05:38:48;5.40;99.90
9808;DHT22;4943;52.550;13.462;2024-02-26T05:41:16;5.40;99.90
9808;DHT22;4943;52.550;13.462;2024-02-26T05:43:51;5.40;99.90
9808;DHT22;4943;52.550;13.462;2024-02-26T05:46:19;5.40;99.90
9808;DHT22;4943;52.550;13.462;2024-02-26T05:48:50;5.40;99.90
9808;DHT22;4943;52.550;13.462;2024-02-26T05:51:18;5.40;99.90
9808;DHT22;4943;52.550;13.462;2024-02-26T05:53:47;5.40;99.90
9808;DHT22;4943;52.550;13.462;2024-02-26T05:56:21;5.40;99.90
9808;DHT22;4943;52.550;13.462;2024-02-26T05:58:50;5.50;99.90
9808;DHT22;4943;52.550;13.462;2024-02-26T06:01:19;5.50;99.90
9808;DHT22;4943;52.550;13.462;2024-02-26T06:03:47;5.50;99.90
9808;DHT22;4943;52.550;13.462;2024-02-26T06:06:16;5.50;99.90
9808;DHT22;4943;52.550;13.462;2024-02-26T06:08:45;5.50;99.90
9808;DHT22;4943;52.550;13.462;2024-02-26T06:11:14;5.50;99.90
9808;DHT22;4943;52.550;13.462;2024-02-26T06:13:43;5.50;99.90
9808;DHT22;4943;52.550;13.462;2024-02-26T06:16:12;5.50;99.90
9808;DHT22;4943;52.550;13.462;2024-02-26T06:18:41;5.50;99.90
9808;DHT22;4943;52.550;13.462;2024-02-26T06:21:09;5.50;99.90
9808;DHT22;4943;52.550;13.462;2024-02-26T06:23:38;5.50;99.90
9808;DHT22;4943;52.550;13.462;2024-02-26T06:26:07;5.50;99.90
9808;DHT22;4943;52.550;13.462;2024-02-26T06:28:36;5.50;99.90
9808;DHT22;4943;52.550;13.462;2024-02-26T06:31:08;5.60;99.90
9808;DHT22;4943;52.550;13.462;2024-02-26T06:33:38;5.60;99.90
9808;DHT22;4943;52.550;13.462;2024-02-26T06:36:06;5.60;99.90
9808;DHT22;4943;52.550;13.462;2024-02-26T06:38:34;5.60;99.90
9808;DHT22;4943;52.550;13.462;2024-02-26T06:41:03;5.70;99.90
9808;DHT22;4943;52.550;13.462;2024-02-26T06:43:31;5.70;99.90
9808;DHT22;4943;52.550;13.462;2024-02-26T06:46:00;5.80;99.90
9808;DHT22;4943;52.550;13.462;2024-02-26T06:48:29;5.80;99.90
9808;DHT22;4943;52.550;13.462;2024-02-26T06:50:59;5.80;99.90
9808;DHT22;4943;52.550;13.462;2024-02-26T06:53:27;5.90;99.90
9808;DHT22;4943;52.550;13.462;2024-02-26T06:55:57;6.00;99.90
9808;DHT22;4943;52.550;13.462;2024-02-26T06:58:25;6.00;99.90
9808;DHT22;4943;52.550;13.462;2024-02-26T07:00:53;6.10;99.90
9808;DHT22;4943;52.550;13.462;2024-02-26T07:03:21;6.20;99.90
9808;DHT22;4943;52.550;13.462;2024-02-26T07:05:51;6.30;99.90
9808;DHT22;4943;52.550;13.462;2024-02-26T07:08:21;6.30;99.90
9808;DHT22;4943;52.550;13.462;2024-02-26T07:10:49;6.40;99.90
9808;DHT22;4943;52.550;13.462;2024-02-26T07:13:17;6.50;99.90
9808;DHT22;4943;52.550;13.462;2024-02-26T07:15:45;6.50;99.90
9808;DHT22;4943;52.550;13.462;2024-02-26T07:18:13;6.50;99.90
9808;DHT22;4943;52.550;13.462;2024-02-26T07:20:41;6.50;99.90
9808;DHT22;4943;52.550;13.462;2024-02-26T07:23:09;6.60;99.90
9808;DHT22;4943;52.550;13.462;2024-02-26T07:25:39;6.60;99.90
9808;DHT22;4943;52.550;13.462;2024-02-26T07:28:07;6.60;99.90
9808;DHT22;4943;52.550;13.462;2024-02-26T07:30:35;6.60;99.90
9808;DHT22;4943;52.550;13.462;2024-02-26T07:33:04;6.70;99.90
9808;DHT22;4943;52.550;13.462;2024-02-26T07:35:32;6.70;99.90
9808;DHT22;4943;52.550;13.462;2024-02-26T07:38:00;6.70;99.90
9808;DHT22;4943;52.550;13.462;2024-02-26T07:40:28;6.70;99.90
9808;DHT22;4943;52.550;13.462;2024-02-26T07:42:57;6.70;99.90
9808;DHT22;4943;52.550;13.462;2024-02-26T07:45:26;6.80;99.90
9808;DHT22;4943;52.550;13.462;2024-02-26T07:47:54;6.80;99.90
9808;DHT22;4943;52.550;13.462;2024-02-26T07:50:22;6.80;99.90
9808;DHT22;4943;52.550;13.462;2024-02-26T07:52:50;6.90;99.90
9808;DHT22;4943;52.550;13.462;2024-02-26T07:55:20;6.90;99.90
9808;DHT22;4943;52.550;13.462;2024-02-26T07:57:49;6.90;99.90
9808;DHT22;4943;52.550;13.462;2024-02-26T08:00:19;6.90;99.90
9808;DHT22;4943;52.550;13.462;2024-02-26T08:02:47;7.00;99.90
9808;DHT22;4943;52.550;13.462;2024-02-26T08:05:16;7.00;99.90
9808;DHT22;4943;52.550;13.462;2024-02-26T08:07:44;7.00;99.90
9808;DHT22;4943;52.550;13.462;2024-02-26T08:10:12;7.00;99.90
9808;DHT22;4943;52.550;13.462;2024-02-26T08:12:40;7.10;99.90
9808;DHT22;4943;52.550;13.462;2024-02-26T08:15:09;7.10;99.90
9808;DHT22;4943;52.550;13.462;2024-02-26T08:17:39;7.20;99.90
9808;DHT22;4943;52.550;13.462;2024-02-26T08:20:08;7.30;99.90
9808;DHT22;4943;52.550;13.462;2024-02-26T08:22:36;7.30;99.90
9808;DHT22;4943;52.550;13.462;2024-02-26T08:25:06;7.50;99.90
9808;DHT22;4943;52.550;13.462;2024-02-26T08:27:36;7.60;99.90
9808;DHT22;4943;52.550;13.462;2024-02-26T08:30:05;7.80;99.90
9808;DHT22;4943;52.550;13.462;2024-02-26T08:32:34;7.90;99.90
9808;DHT22;4943;52.550;13.462;2024-02-26T08:35:04;8.00;99.90
9808;DHT22;4943;52.550;13.462;2024-02-26T08:37:32;8.10;99.90
9808;DHT22;4943;52.550;13.462;2024-02-26T08:40:00;8.20;99.90
9808;DHT22;4943;52.550;13.462;2024-02-26T08:42:33;8.30;99.90
9808;DHT22;4943;52.550;13.462;2024-02-26T08:45:02;8.40;99.90
9808;DHT22;4943;52.550;13.462;2024-02-26T08:47:33;8.60;99.90
9808;DHT22;4943;52.550;13.462;2024-02-26T08:50:06;8.70;99.90
9808;DHT22;4943;52.550;13.462;2024-02-26T08:52:36;8.70;99.90
9808;DHT22;4943;52.550;13.462;2024-02-26T08:55:05;8.80;99.90
9808;DHT22;4943;52.550;13.462;2024-02-26T08:57:35;8.70;99.90
9808;DHT22;4943;52.550;13.462;2024-02-26T09:00:04;8.70;99.90
9808;DHT22;4943;52.550;13.462;2024-02-26T09:02:32;8.80;99.90
9808;DHT22;4943;52.550;13.462;2024-02-26T09:05:00;8.80;99.90
9808;DHT22;4943;52.550;13.462;2024-02-26T09:07:30;8.80;99.90
9808;DHT22;4943;52.550;13.462;2024-02-26T09:09:58;8.80;99.90
9808;DHT22;4943;52.550;13.462;2024-02-26T09:12:26;8.90;99.90
9808;DHT22;4943;52.550;13.462;2024-02-26T09:14:54;9.00;99.90
9808;DHT22;4943;52.550;13.462;2024-02-26T09:17:24;9.20;99.90
9808;DHT22;4943;52.550;13.462;2024-02-26T09:19:52;9.20;99.90
9808;DHT22;4943;52.550;13.462;2024-02-26T09:22:20;9.30;99.90
9808;DHT22;4943;52.550;13.462;2024-02-26T09:24:50;9.40;99.90
9808;DHT22;4943;52.550;13.462;2024-02-26T09:27:20;9.50;99.90
9808;DHT22;4943;52.550;13.462;2024-02-26T09:29:49;9.50;99.90
9808;DHT22;4943;52.550;13.462;2024-02-26T09:32:17;9.60;99.90
9808;DHT22;4943;52.550;13.462;2024-02-26T09:34:45;9.60;99.90
9808;DHT22;4943;52.550;13.462;2024-02-26T09:37:13;9.70;99.90
9808;DHT22;4943;52.550;13.462;2024-02-26T09:39:48;9.70;99.90
9808;DHT22;4943;52.550;13.462;2024-02-26T09:42:18;9.70;99.90
9808;DHT22;4943;52.550;13.462;2024-02-26T09:44:47;9.70;99.90
9808;DHT22;4943;52.550;13.462;2024-02-26T09:47:17;9.80;99.90
9808;DHT22;4943;52.550;13.462;2024-02-26T09:49:49;9.80;99.90
9808;DHT22;4943;52.550;13.462;2024-02-26T09:52:20;9.90;99.90
9808;DHT22;4943;52.550;13.462;2024-02-26T09:54:48;9.90;99.90
9808;DHT22;4943;52.550;13.462;2024-02-26T09:57:18;9.90;99.90
9808;DHT22;4943;52.550;13.462;2024-02-26T09:59:47;9.90;99.90
9808;DHT22;4943;52.550;13.462;2024-02-26T10:02:18;9.80;99.90
9808;DHT22;4943;52.550;13.462;2024-02-26T10:04:47;9.80;99.90
9808;DHT22;4943;52.550;13.462;2024-02-26T10:07:18;9.80;99.90
9808;DHT22;4943;52.550;13.462;2024-02-26T10:09:47;9.80;99.90
9808;DHT22;4943;52.550;13.462;2024-02-26T10:12:17;9.80;99.90
9808;DHT22;4943;52.550;13.462;2024-02-26T10:14:46;9.90;99.90
9808;DHT22;4943;52.550;13.462;2024-02-26T10:17:14;10.00;99.90
9808;DHT22;4943;52.550;13.462;2024-02-26T10:19:42;10.00;99.90
9808;DHT22;4943;52.550;13.462;2024-02-26T10:22:11;10.10;99.90
9808;DHT22;4943;52.550;13.462;2024-02-26T10:24:39;10.20;99.90
9808;DHT22;4943;52.550;13.462;2024-02-26T10:27:08;10.20;99.90
9808;DHT22;4943;52.550;13.462;2024-02-26T10:29:38;10.30;99.90
9808;DHT22;4943;52.550;13.462;2024-02-26T10:32:07;10.40;99.90
9808;DHT22;4943;52.550;13.462;2024-02-26T10:34:36;10.40;99.90
9808;DHT22;4943;52.550;13.462;2024-02-26T10:37:05;10.50;99.90
9808;DHT22;4943;52.550;13.462;2024-02-26T10:39:35;10.60;99.90
9808;DHT22;4943;52.550;13.462;2024-02-26T10:42:04;10.70;99.90
9808;DHT22;4943;52.550;13.462;2024-02-26T10:44:40;10.80;99.90
9808;DHT22;4943;52.550;13.462;2024-02-26T10:47:09;10.90;99.90
9808;DHT22;4943;52.550;13.462;2024-02-26T10:49:37;11.00;99.90
9808;DHT22;4943;52.550;13.462;2024-02-26T10:52:06;11.10;99.90
9808;DHT22;4943;52.550;13.462;2024-02-26T10:54:36;11.10;99.90
9808;DHT22;4943;52.550;13.462;2024-02-26T10:57:07;11.10;99.90
9808;DHT22;4943;52.550;13.462;2024-02-26T10:59:38;11.10;99.90
9808;DHT22;4943;52.550;13.462;2024-02-26T11:02:08;11.20;99.90
9808;DHT22;4943;52.550;13.462;2024-02-26T11:04:38;11.20;99.90
9808;DHT22;4943;52.550;13.462;2024-02-26T11:07:09;11.20;99.90
9808;DHT22;4943;52.550;13.462;2024-02-26T11:09:37;11.30;99.90
9808;DHT22;4943;52.550;13.462;2024-02-26T11:12:11;11.40;99.90
9808;DHT22;4943;52.550;13.462;2024-02-26T11:14:44;11.40;99.90
9808;DHT22;4943;52.550;13.462;2024-02-26T11:17:15;11.50;99.90
9808;DHT22;4943;52.550;13.462;2024-02-26T11:19:45;11.50;99.90
9808;DHT22;4943;52.550;13.462;2024-02-26T11:22:14;11.50;99.90
9808;DHT22;4943;52.550;13.462;2024-02-26T11:24:50;11.50;99.90
9808;DHT22;4943;52.550;13.462;2024-02-26T11:27:19;11.50;99.90
9808;DHT22;4943;52.550;13.462;2024-02-26T11:29:52;11.60;99.90
9808;DHT22;4943;52.550;13.462;2024-02-26T11:32:21;11.70;99.90
9808;DHT22;4943;52.550;13.462;2024-02-26T11:34:49;11.70;99.90
9808;DHT22;4943;52.550;13.462;2024-02-26T11:37:18;11.80;99.90
9808;DHT22;4943;52.550;13.462;2024-02-26T11:39:47;11.90;99.90
9808;DHT22;4943;52.550;13.462;2024-02-26T11:42:16;11.90;99.90
9808;DHT22;4943;52.550;13.462;2024-02-26T11:44:45;12.00;99.90
9808;DHT22;4943;52.550;13.462;2024-02-26T11:47:19;12.00;99.90
9808;DHT22;4943;52.550;13.462;2024-02-26T11:49:58;12.00;99.90
9808;DHT22;4943;52.550;13.462;2024-02-26T11:52:26;12.00;99.90
9808;DHT22;4943;52.550;13.462;2024-02-26T11:55:02;12.10;99.90
9808;DHT22;4943;52.550;13.462;2024-02-26T11:57:40;12.00;99.90
9808;DHT22;4943;52.550;13.462;2024-02-26T12:00:16;12.10;99.90
9808;DHT22;4943;52.550;13.462;2024-02-26T12:02:53;12.20;99.90
9808;DHT22;4943;52.550;13.462;2024-02-26T12:05:32;12.20;99.90
9808;DHT22;4943;52.550;13.462;2024-02-26T12:08:03;12.30;99.90
9808;DHT22;4943;52.550;13.462;2024-02-26T12:10:36;12.40;99.90
9808;DHT22;4943;52.550;13.462;2024-02-26T12:13:07;12.40;99.90
9808;DHT22;4943;52.550;13.462;2024-02-26T12:15:37;12.50;99.90
9808;DHT22;4943;52.550;13.462;2024-02-26T12:18:08;12.50;99.90
9808;DHT22;4943;52.550;13.462;2024-02-26T12:20:37;12.50;99.90
9808;DHT22;4943;52.550;13.462;2024-02-26T12:23:06;12.60;99.90
9808;DHT22;4943;52.550;13.462;2024-02-26T12:25:34;12.60;99.90
9808;DHT22;4943;52.550;13.462;2024-02-26T12:28:02;12.60;99.90
9808;DHT22;4943;52.550;13.462;2024-02-26T12:30:31;12.70;99.90
9808;DHT22;4943;52.550;13.462;2024-02-26T12:32:59;12.80;99.90
9808;DHT22;4943;52.550;13.462;2024-02-26T12:35:29;12.80;99.90
9808;DHT22;4943;52.550;13.462;2024-02-26T12:38:00;13.00;99.90
9808;DHT22;4943;52.550;13.462;2024-02-26T12:40:29;13.00;99.90
9808;DHT22;4943;52.550;13.462;2024-02-26T12:42:58;13.10;99.90
9808;DHT22;4943;52.550;13.462;2024-02-26T12:45:26;13.20;99.90
9808;DHT22;4943;52.550;13.462;2024-02-26T12:47:55;13.20;99.90
9808;DHT22;4943;52.550;13.462;2024-02-26T12:50:24;13.20;99.90
9808;DHT22;4943;52.550;13.462;2024-02-26T12:52:54;13.30;99.90
9808;DHT22;4943;52.550;13.462;2024-02-26T12:55:22;13.20;99.90
9808;DHT22;4943;52.550;13.462;2024-02-26T12:57:51;13.20;99.90
9808;DHT22;4943;52.550;13.462;2024-02-26T13:00:26;13.10;99.90
9808;DHT22;4943;52.550;13.462;2024-02-26T13:02:55;13.10;99.90
9808;DHT22;4943;52.550;13.462;2024-02-26T13:05:24;13.10;99.90
9808;DHT22;4943;52.550;13.462;2024-02-26T13:07:55;13.10;99.90
9808;DHT22;4943;52.550;13.462;2024-02-26T13:10:23;13.10;99.90
9808;DHT22;4943;52.550;13.462;2024-02-26T13:12:52;13.10;99.90
9808;DHT22;4943;52.550;13.462;2024-02-26T13:15:21;13.10;99.90
9808;DHT22;4943;52.550;13.462;2024-02-26T13:17:50;13.10;99.90
9808;DHT22;4943;52.550;13.462;2024-02-26T13:20:27;13.10;99.90
9808;DHT22;4943;52.550;13.462;2024-02-26T13:23:03;13.00;99.90
9808;DHT22;4943;52.550;13.462;2024-02-26T13:25:34;13.00;99.90
9808;DHT22;4943;52.550;13.462;2024-02-26T13:28:07;13.00;99.90
9808;DHT22;4943;52.550;13.462;2024-02-26T13:30:36;13.10;99.90
9808;DHT22;4943;52.550;13.462;2024-02-26T13:33:08;13.20;99.90
9808;DHT22;4943;52.550;13.462;2024-02-26T13:35:37;13.20;99.90
9808;DHT22;4943;52.550;13.462;2024-02-26T13:38:08;13.20;99.90
9808;DHT22;4943;52.550;13.462;2024-02-26T13:40:38;13.20;99.90
9808;DHT22;4943;52.550;13.462;2024-02-26T13:43:07;13.20;99.90
9808;DHT22;4943;52.550;13.462;2024-02-26T13:45:36;13.20;99.90
9808;DHT22;4943;52.550;13.462;2024-02-26T13:48:05;13.20;99.90
9808;DHT22;4943;52.550;13.462;2024-02-26T13:50:34;13.20;99.90
9808;DHT22;4943;52.550;13.462;2024-02-26T13:53:03;13.20;99.90
9808;DHT22;4943;52.550;13.462;2024-02-26T13:55:33;13.10;99.90
9808;DHT22;4943;52.550;13.462;2024-02-26T13:58:01;13.20;99.90
9808;DHT22;4943;52.550;13.462;2024-02-26T14:00:30;13.10;99.90
9808;DHT22;4943;52.550;13.462;2024-02-26T14:03:01;13.10;99.90
9808;DHT22;4943;52.550;13.462;2024-02-26T14:05:30;13.10;99.90
9808;DHT22;4943;52.550;13.462;2024-02-26T14:07:59;13.10;99.90
9808;DHT22;4943;52.550;13.462;2024-02-26T14:10:28;13.10;99.90
9808;DHT22;4943;52.550;13.462;2024-02-26T14:12:58;13.10;99.90
9808;DHT22;4943;52.550;13.462;2024-02-26T14:15:28;13.20;99.90
9808;DHT22;4943;52.550;13.462;2024-02-26T14:17:56;13.20;99.90
9808;DHT22;4943;52.550;13.462;2024-02-26T14:20:25;13.20;99.90
9808;DHT22;4943;52.550;13.462;2024-02-26T14:22:53;13.10;99.90
9808;DHT22;4943;52.550;13.462;2024-02-26T14:25:22;13.10;99.90
9808;DHT22;4943;52.550;13.462;2024-02-26T14:27:55;13.10;99.90
9808;DHT22;4943;52.550;13.462;2024-02-26T14:30:26;13.10;99.90
9808;DHT22;4943;52.550;13.462;2024-02-26T14:32:55;13.10;99.90
9808;DHT22;4943;52.550;13.462;2024-02-26T14:35:23;13.10;99.90
9808;DHT22;4943;52.550;13.462;2024-02-26T14:37:51;13.10;99.90
9808;DHT22;4943;52.550;13.462;2024-02-26T14:40:21;13.10;99.90
9808;DHT22;4943;52.550;13.462;2024-02-26T14:42:49;13.10;99.90
9808;DHT22;4943;52.550;13.462;2024-02-26T14:45:17;13.10;99.90
9808;DHT22;4943;52.550;13.462;2024-02-26T14:47:47;13.00;99.90
9808;DHT22;4943;52.550;13.462;2024-02-26T14:50:15;12.90;99.90
9808;DHT22;4943;52.550;13.462;2024-02-26T14:52:43;12.90;99.90
9808;DHT22;4943;52.550;13.462;2024-02-26T14:55:11;12.90;99.90
9808;DHT22;4943;52.550;13.462;2024-02-26T14:57:40;12.80;99.90
9808;DHT22;4943;52.550;13.462;2024-02-26T15:00:09;12.80;99.90
9808;DHT22;4943;52.550;13.462;2024-02-26T15:02:38;12.80;99.90
9808;DHT22;4943;52.550;13.462;2024-02-26T15:05:08;12.80;99.90
9808;DHT22;4943;52.550;13.462;2024-02-26T15:07:38;12.80;99.90
9808;DHT22;4943;52.550;13.462;2024-02-26T15:10:08;12.70;99.90
9808;DHT22;4943;52.550;13.462;2024-02-26T15:12:36;12.60;99.90
9808;DHT22;4943;52.550;13.462;2024-02-26T15:15:05;12.60;99.90
9808;DHT22;4943;52.550;13.462;2024-02-26T15:17:34;12.60;99.90
9808;DHT22;4943;52.550;13.462;2024-02-26T15:20:03;12.60;99.90
9808;DHT22;4943;52.550;13.462;2024-02-26T15:22:36;12.50;99.90
9808;DHT22;4943;52.550;13.462;2024-02-26T15:25:05;12.50;99.90
9808;DHT22;4943;52.550;13.462;2024-02-26T15:27:37;12.40;99.90
9808;DHT22;4943;52.550;13.462;2024-02-26T15:30:06;12.40;99.90
9808;DHT22;4943;52.550;13.462;2024-02-26T15:32:35;12.40;99.90
9808;DHT22;4943;52.550;13.462;2024-02-26T15:35:03;12.40;99.90
9808;DHT22;4943;52.550;13.462;2024-02-26T15:37:32;12.40;99.90
9808;DHT22;4943;52.550;13.462;2024-02-26T15:40:04;12.40;99.90
9808;DHT22;4943;52.550;13.462;2024-02-26T15:42:34;12.40;99.90
9808;DHT22;4943;52.550;13.462;2024-02-26T15:45:02;12.40;99.90
9808;DHT22;4943;52.550;13.462;2024-02-26T15:47:30;12.40;99.90
9808;DHT22;4943;52.550;13.462;2024-02-26T15:49:59;12.30;99.90
9808;DHT22;4943;52.550;13.462;2024-02-26T15:52:28;12.30;99.90
9808;DHT22;4943;52.550;13.462;2024-02-26T15:54:56;12.30;99.90
9808;DHT22;4943;52.550;13.462;2024-02-26T15:57:26;12.20;99.90
9808;DHT22;4943;52.550;13.462;2024-02-26T15:59:54;12.30;99.90
9808;DHT22;4943;52.550;13.462;2024-02-26T16:02:27;12.30;99.90
9808;DHT22;4943;52.550;13.462;2024-02-26T16:04:55;12.30;99.90
9808;DHT22;4943;52.550;13.462;2024-02-26T16:07:29;12.20;99.90